Altoona Blair County Airport
KAOO : rendu visible

Aérodrome :











RETROUVEZ-NOUS SUR...

 
LOGIN :

S'inscrire | Disclaimer

   EN    FR    IT 

 









Légende :    VFR   VFR Marginal   IFR   IFR Intensif   IFR Très Intensif
Visi : 
Plafond : 
>= 8 km
>= 3000ft
5 à 8 km
1000 à 3000 ft
1500m à 5 km
500 à 1000 ft
800 à 1500m
200 à 500 ft
< 800m
< 200 ft
Symboles :   Orages  Brouillard  Fortes neiges  Fortes précipitations  Vent > 20 kt






- Altitude de l'aérodrome : 1503 ft
- Code IATA : AOO


KAOO - Altoona Blair County

DERNIER METAR :
  • 190122Z AUTO 17005KT OVC004 00/M02 A2973 RMK AO2 UPB00E14 P0000 T00001017 $

METARs EXPIRÉS :
  • 190053Z AUTO 18005KT OVC007 00/M02 A2975 RMK AO2 UPB07E14B34E44RAB14E17FZRAB04E07 CIG 005V009 SLP093 P0000 I1000 T00001017 $
  • 190016Z AUTO 19006KT -RA OVC009 01/M02 A2977 RMK AO2 UPB07E14RAB14FZRAB04E07 P0000 I1000 T00061017 $
  • 182353Z AUTO 21010KT OVC010 00/M02 A2979 RMK AO2 UPE00B32E36FZRAB00E32B36E53 SLP105 P0002 60028 I1002 I6007 T00001017 10000 21039 56037 $
  • 182338Z AUTO 20011KT -FZRA OVC010 00/M02 A2979 RMK AO2 UPE00B32E36FZRAB00E32B36 P0002 I1002 T00001017 $
  • 182306Z AUTO 20013KT -FZRA OVC009 M01/M03 A2981 RMK AO2 UPE00FZRAB00 CIG 006V012 P0001 I1001 T10061028 $
  • 182253Z AUTO 20012KT UP OVC009 M01/M03 A2981 RMK AO2 UPB44FZRAE2157B19E35SNB35E44 CIG 006V012 SLP115 P0001 I1002 T10061028 $

TAF KAOO
Valide du 19 à 00h jusqu'au 20 à 00h UTC


182340Z 1900/1924 20012KT 2SM -FZRA OVC009 WS020/25048KT
FM190300 24015G22KT 6SM -SHSN OVC015 WS020/25048KT
FM190800 27018G26KT P6SM OVC025



MET'MAP, la Météo Aéronautique d'un coup d'oeil ! - Copyright ORBIFLY Décembre 2007 - Disclaimer

ORBIFLY MET'MAP TEAM :

Programmation & Développement : Alexandra Zaïnal
Sur une idée originale de : Baudouin d'Aumeries
Assistance à la programmation : Marc-Olivier Méhu
Soutien technique & logistique : Manuel Goepfert

Contact : metmap@orbifly.com




SOURCES & CREDITS :

   NOAA       Earth
Advisory